sensor_id;sensor_type;location;lat;lon;timestamp;temperature;humidity
23783;DHT22;12071;50.850;4.446;2022-12-18T00:01:41;-3.00;99.90
23783;DHT22;12071;50.850;4.446;2022-12-18T00:04:18;-3.00;99.90
23783;DHT22;12071;50.850;4.446;2022-12-18T00:06:45;-2.90;99.90
23783;DHT22;12071;50.850;4.446;2022-12-18T00:09:10;-3.10;99.90
23783;DHT22;12071;50.850;4.446;2022-12-18T00:11:36;-3.20;99.90
23783;DHT22;12071;50.850;4.446;2022-12-18T00:14:02;-3.20;99.90
23783;DHT22;12071;50.850;4.446;2022-12-18T00:16:28;-3.10;99.90
23783;DHT22;12071;50.850;4.446;2022-12-18T00:18:56;-3.10;99.90
23783;DHT22;12071;50.850;4.446;2022-12-18T00:21:22;-3.10;99.90
23783;DHT22;12071;50.850;4.446;2022-12-18T00:23:48;-3.10;99.90
23783;DHT22;12071;50.850;4.446;2022-12-18T00:26:17;-3.10;99.90
23783;DHT22;12071;50.850;4.446;2022-12-18T00:28:44;-2.80;99.90
23783;DHT22;12071;50.850;4.446;2022-12-18T00:31:12;-2.90;99.90
23783;DHT22;12071;50.850;4.446;2022-12-18T00:33:38;-3.00;99.90
23783;DHT22;12071;50.850;4.446;2022-12-18T00:36:06;-3.00;99.90
23783;DHT22;12071;50.850;4.446;2022-12-18T00:38:33;-2.90;99.90
23783;DHT22;12071;50.850;4.446;2022-12-18T00:40:59;-3.00;99.90
23783;DHT22;12071;50.850;4.446;2022-12-18T00:43:25;-3.10;99.90
23783;DHT22;12071;50.850;4.446;2022-12-18T00:45:50;-3.10;99.90
23783;DHT22;12071;50.850;4.446;2022-12-18T00:48:16;-3.40;99.90
23783;DHT22;12071;50.850;4.446;2022-12-18T00:50:42;-3.20;99.90
23783;DHT22;12071;50.850;4.446;2022-12-18T00:53:07;-2.80;99.90
23783;DHT22;12071;50.850;4.446;2022-12-18T00:55:33;-2.70;99.90
23783;DHT22;12071;50.850;4.446;2022-12-18T00:57:58;-2.80;99.90
23783;DHT22;12071;50.850;4.446;2022-12-18T01:00:24;-3.00;99.90
23783;DHT22;12071;50.850;4.446;2022-12-18T01:02:50;-3.10;99.90
23783;DHT22;12071;50.850;4.446;2022-12-18T01:05:16;-3.20;99.90
23783;DHT22;12071;50.850;4.446;2022-12-18T01:07:41;-3.30;99.90
23783;DHT22;12071;50.850;4.446;2022-12-18T01:10:08;-3.30;99.90
23783;DHT22;12071;50.850;4.446;2022-12-18T01:12:35;-3.20;99.90
23783;DHT22;12071;50.850;4.446;2022-12-18T01:15:01;-3.10;99.90
23783;DHT22;12071;50.850;4.446;2022-12-18T01:17:26;-3.20;99.90
23783;DHT22;12071;50.850;4.446;2022-12-18T01:19:52;-3.40;99.90
23783;DHT22;12071;50.850;4.446;2022-12-18T01:22:18;-3.70;99.90
23783;DHT22;12071;50.850;4.446;2022-12-18T01:24:44;-3.70;99.90
23783;DHT22;12071;50.850;4.446;2022-12-18T01:27:09;-3.80;99.90
23783;DHT22;12071;50.850;4.446;2022-12-18T01:29:35;-3.90;99.90
23783;DHT22;12071;50.850;4.446;2022-12-18T01:32:00;-3.70;99.90
23783;DHT22;12071;50.850;4.446;2022-12-18T01:34:26;-3.80;99.90
23783;DHT22;12071;50.850;4.446;2022-12-18T01:36:52;-3.70;99.90
23783;DHT22;12071;50.850;4.446;2022-12-18T01:39:18;-3.50;99.90
23783;DHT22;12071;50.850;4.446;2022-12-18T01:41:45;-3.60;99.90
23783;DHT22;12071;50.850;4.446;2022-12-18T01:47:20;-3.60;99.90
23783;DHT22;12071;50.850;4.446;2022-12-18T01:49:47;-3.50;99.90
23783;DHT22;12071;50.850;4.446;2022-12-18T01:52:13;-3.70;99.90
23783;DHT22;12071;50.850;4.446;2022-12-18T01:54:39;-3.90;99.90
23783;DHT22;12071;50.850;4.446;2022-12-18T01:57:05;-4.10;99.90
23783;DHT22;12071;50.850;4.446;2022-12-18T01:59:31;-4.10;99.90
23783;DHT22;12071;50.850;4.446;2022-12-18T02:01:59;-4.00;99.90
23783;DHT22;12071;50.850;4.446;2022-12-18T02:04:26;-4.00;99.90
23783;DHT22;12071;50.850;4.446;2022-12-18T02:07:46;-4.00;99.90
23783;DHT22;12071;50.850;4.446;2022-12-18T02:10:00;-3.80;99.90
23783;DHT22;12071;50.850;4.446;2022-12-18T02:15:38;-4.00;99.90
23783;DHT22;12071;50.850;4.446;2022-12-18T02:20:45;-4.00;99.90
23783;DHT22;12071;50.850;4.446;2022-12-18T02:23:40;-3.90;99.90
23783;DHT22;12071;50.850;4.446;2022-12-18T02:29:01;-4.00;99.90
23783;DHT22;12071;50.850;4.446;2022-12-18T02:31:35;-4.10;99.90
23783;DHT22;12071;50.850;4.446;2022-12-18T02:34:04;-4.10;99.90
23783;DHT22;12071;50.850;4.446;2022-12-18T02:36:32;-4.20;99.90
23783;DHT22;12071;50.850;4.446;2022-12-18T02:39:00;-4.20;99.90
23783;DHT22;12071;50.850;4.446;2022-12-18T02:41:26;-4.10;99.90
23783;DHT22;12071;50.850;4.446;2022-12-18T02:43:59;-4.10;99.90
23783;DHT22;12071;50.850;4.446;2022-12-18T02:46:37;-4.10;99.90
23783;DHT22;12071;50.850;4.446;2022-12-18T02:52:28;-4.00;99.90
23783;DHT22;12071;50.850;4.446;2022-12-18T02:55:16;-4.20;99.90
23783;DHT22;12071;50.850;4.446;2022-12-18T02:57:50;-4.00;99.90
23783;DHT22;12071;50.850;4.446;2022-12-18T03:00:24;-4.10;99.90
23783;DHT22;12071;50.850;4.446;2022-12-18T03:05:47;-4.20;99.90
23783;DHT22;12071;50.850;4.446;2022-12-18T03:08:26;-4.20;99.90
23783;DHT22;12071;50.850;4.446;2022-12-18T03:11:00;-4.30;99.90
23783;DHT22;12071;50.850;4.446;2022-12-18T03:13:34;-4.30;99.90
23783;DHT22;12071;50.850;4.446;2022-12-18T03:16:02;-4.50;99.90
23783;DHT22;12071;50.850;4.446;2022-12-18T03:18:39;-4.40;99.90
23783;DHT22;12071;50.850;4.446;2022-12-18T03:21:08;-4.50;1.00
23783;DHT22;12071;50.850;4.446;2022-12-18T03:23:47;-4.40;1.00
23783;DHT22;12071;50.850;4.446;2022-12-18T03:26:17;-4.40;1.00
23783;DHT22;12071;50.850;4.446;2022-12-18T03:28:54;-4.40;1.00
23783;DHT22;12071;50.850;4.446;2022-12-18T03:31:23;-4.30;1.00
23783;DHT22;12071;50.850;4.446;2022-12-18T03:33:54;-4.20;1.00
23783;DHT22;12071;50.850;4.446;2022-12-18T03:36:21;-4.20;1.00
23783;DHT22;12071;50.850;4.446;2022-12-18T03:38:47;-4.00;1.00
23783;DHT22;12071;50.850;4.446;2022-12-18T03:41:38;-4.10;1.00
23783;DHT22;12071;50.850;4.446;2022-12-18T03:47:06;-4.00;1.00
23783;DHT22;12071;50.850;4.446;2022-12-18T03:49:38;-4.10;1.00
23783;DHT22;12071;50.850;4.446;2022-12-18T03:52:22;-4.30;1.00
23783;DHT22;12071;50.850;4.446;2022-12-18T03:54:49;-4.10;1.00
23783;DHT22;12071;50.850;4.446;2022-12-18T03:57:19;-4.10;1.00
23783;DHT22;12071;50.850;4.446;2022-12-18T03:59:47;-4.10;99.90
23783;DHT22;12071;50.850;4.446;2022-12-18T04:02:16;-4.20;99.90
23783;DHT22;12071;50.850;4.446;2022-12-18T04:04:43;-4.40;1.00
23783;DHT22;12071;50.850;4.446;2022-12-18T04:07:10;-4.30;1.00
23783;DHT22;12071;50.850;4.446;2022-12-18T04:09:36;-4.40;1.00
23783;DHT22;12071;50.850;4.446;2022-12-18T04:12:03;-4.40;1.00
23783;DHT22;12071;50.850;4.446;2022-12-18T04:14:29;-4.40;1.00
23783;DHT22;12071;50.850;4.446;2022-12-18T04:16:55;-4.40;1.00
23783;DHT22;12071;50.850;4.446;2022-12-18T04:19:20;-4.50;1.00
23783;DHT22;12071;50.850;4.446;2022-12-18T04:21:46;-4.50;1.00
23783;DHT22;12071;50.850;4.446;2022-12-18T04:24:11;-4.40;1.00
23783;DHT22;12071;50.850;4.446;2022-12-18T04:26:37;-4.40;1.00
23783;DHT22;12071;50.850;4.446;2022-12-18T04:29:03;-4.40;1.00
23783;DHT22;12071;50.850;4.446;2022-12-18T04:31:29;-4.30;1.00
23783;DHT22;12071;50.850;4.446;2022-12-18T04:33:54;-4.30;1.00
23783;DHT22;12071;50.850;4.446;2022-12-18T04:36:20;-4.20;1.00
23783;DHT22;12071;50.850;4.446;2022-12-18T04:38:46;-4.30;1.00
23783;DHT22;12071;50.850;4.446;2022-12-18T04:41:13;-4.40;1.00
23783;DHT22;12071;50.850;4.446;2022-12-18T04:43:38;-4.20;1.00
23783;DHT22;12071;50.850;4.446;2022-12-18T04:46:08;-4.30;1.00
23783;DHT22;12071;50.850;4.446;2022-12-18T04:48:34;-4.20;1.00
23783;DHT22;12071;50.850;4.446;2022-12-18T04:51:00;-4.10;99.90
23783;DHT22;12071;50.850;4.446;2022-12-18T04:53:26;-4.30;99.90
23783;DHT22;12071;50.850;4.446;2022-12-18T04:58:30;-4.20;99.90
23783;DHT22;12071;50.850;4.446;2022-12-18T05:00:56;-4.00;99.90
23783;DHT22;12071;50.850;4.446;2022-12-18T05:03:21;-4.20;99.90
23783;DHT22;12071;50.850;4.446;2022-12-18T05:05:50;-4.40;99.90
23783;DHT22;12071;50.850;4.446;2022-12-18T05:08:16;-4.40;99.90
23783;DHT22;12071;50.850;4.446;2022-12-18T05:10:42;-4.60;99.90
23783;DHT22;12071;50.850;4.446;2022-12-18T05:13:07;-4.50;99.90
23783;DHT22;12071;50.850;4.446;2022-12-18T05:15:33;-4.60;99.90
23783;DHT22;12071;50.850;4.446;2022-12-18T05:18:00;-4.80;99.90
23783;DHT22;12071;50.850;4.446;2022-12-18T05:20:26;-4.50;1.00
23783;DHT22;12071;50.850;4.446;2022-12-18T05:22:52;-4.50;99.90
23783;DHT22;12071;50.850;4.446;2022-12-18T05:25:19;-4.40;99.90
23783;DHT22;12071;50.850;4.446;2022-12-18T05:27:45;-4.10;99.90
23783;DHT22;12071;50.850;4.446;2022-12-18T05:30:11;-4.20;99.90
23783;DHT22;12071;50.850;4.446;2022-12-18T05:32:37;-4.30;99.90
23783;DHT22;12071;50.850;4.446;2022-12-18T05:35:04;-4.30;99.90
23783;DHT22;12071;50.850;4.446;2022-12-18T05:37:30;-4.50;99.90
23783;DHT22;12071;50.850;4.446;2022-12-18T05:39:56;-4.70;99.90
23783;DHT22;12071;50.850;4.446;2022-12-18T05:42:21;-4.80;99.90
23783;DHT22;12071;50.850;4.446;2022-12-18T05:44:47;-4.80;99.90
23783;DHT22;12071;50.850;4.446;2022-12-18T05:47:13;-4.70;99.90
23783;DHT22;12071;50.850;4.446;2022-12-18T05:49:38;-4.60;99.90
23783;DHT22;12071;50.850;4.446;2022-12-18T05:52:04;-4.50;99.90
23783;DHT22;12071;50.850;4.446;2022-12-18T05:54:30;-4.60;1.00
23783;DHT22;12071;50.850;4.446;2022-12-18T05:56:56;-4.50;1.00
23783;DHT22;12071;50.850;4.446;2022-12-18T05:59:22;-4.50;1.00
23783;DHT22;12071;50.850;4.446;2022-12-18T06:01:48;-4.40;1.00
23783;DHT22;12071;50.850;4.446;2022-12-18T06:04:14;-4.50;1.00
23783;DHT22;12071;50.850;4.446;2022-12-18T06:06:40;-4.50;1.00
23783;DHT22;12071;50.850;4.446;2022-12-18T06:09:06;-4.50;1.00
23783;DHT22;12071;50.850;4.446;2022-12-18T06:11:36;-4.40;1.00
23783;DHT22;12071;50.850;4.446;2022-12-18T06:14:03;-4.40;1.00
23783;DHT22;12071;50.850;4.446;2022-12-18T06:16:29;-4.30;1.00
23783;DHT22;12071;50.850;4.446;2022-12-18T06:19:01;-4.30;1.00
23783;DHT22;12071;50.850;4.446;2022-12-18T06:21:29;-4.20;1.00
23783;DHT22;12071;50.850;4.446;2022-12-18T06:23:56;-4.30;99.90
23783;DHT22;12071;50.850;4.446;2022-12-18T06:26:21;-4.50;99.90
23783;DHT22;12071;50.850;4.446;2022-12-18T06:28:47;-4.20;99.90
23783;DHT22;12071;50.850;4.446;2022-12-18T06:31:13;-3.80;99.90
23783;DHT22;12071;50.850;4.446;2022-12-18T06:33:39;-3.60;99.90
23783;DHT22;12071;50.850;4.446;2022-12-18T06:36:10;-3.60;99.90
23783;DHT22;12071;50.850;4.446;2022-12-18T06:38:39;-3.60;99.90
23783;DHT22;12071;50.850;4.446;2022-12-18T06:41:10;-4.10;99.90
23783;DHT22;12071;50.850;4.446;2022-12-18T06:43:36;-4.10;99.90
23783;DHT22;12071;50.850;4.446;2022-12-18T06:46:03;-4.40;99.90
23783;DHT22;12071;50.850;4.446;2022-12-18T06:48:29;-4.50;99.90
23783;DHT22;12071;50.850;4.446;2022-12-18T06:50:55;-4.40;99.90
23783;DHT22;12071;50.850;4.446;2022-12-18T06:53:21;-4.10;99.90
23783;DHT22;12071;50.850;4.446;2022-12-18T06:55:47;-3.90;99.90
23783;DHT22;12071;50.850;4.446;2022-12-18T06:58:12;-3.80;99.90
23783;DHT22;12071;50.850;4.446;2022-12-18T07:00:38;-4.00;99.90
23783;DHT22;12071;50.850;4.446;2022-12-18T07:03:04;-3.90;99.90
23783;DHT22;12071;50.850;4.446;2022-12-18T07:05:29;-4.00;99.90
23783;DHT22;12071;50.850;4.446;2022-12-18T07:07:55;-4.00;99.90
23783;DHT22;12071;50.850;4.446;2022-12-18T07:10:20;-4.20;99.90
23783;DHT22;12071;50.850;4.446;2022-12-18T07:12:46;-4.30;99.90
23783;DHT22;12071;50.850;4.446;2022-12-18T07:15:12;-4.50;99.90
23783;DHT22;12071;50.850;4.446;2022-12-18T07:17:37;-4.50;99.90
23783;DHT22;12071;50.850;4.446;2022-12-18T07:20:03;-4.50;99.90
23783;DHT22;12071;50.850;4.446;2022-12-18T07:22:29;-4.40;99.90
23783;DHT22;12071;50.850;4.446;2022-12-18T07:24:55;-4.50;99.90
23783;DHT22;12071;50.850;4.446;2022-12-18T07:27:21;-4.40;99.90
23783;DHT22;12071;50.850;4.446;2022-12-18T07:29:47;-4.40;99.90
23783;DHT22;12071;50.850;4.446;2022-12-18T07:32:13;-4.40;99.90
23783;DHT22;12071;50.850;4.446;2022-12-18T07:34:38;-4.40;1.00
23783;DHT22;12071;50.850;4.446;2022-12-18T07:37:04;-4.40;1.00
23783;DHT22;12071;50.850;4.446;2022-12-18T07:39:30;-4.30;1.00
23783;DHT22;12071;50.850;4.446;2022-12-18T07:41:56;-4.20;1.00
23783;DHT22;12071;50.850;4.446;2022-12-18T07:44:40;-4.10;1.00
23783;DHT22;12071;50.850;4.446;2022-12-18T07:47:06;-4.10;99.90
23783;DHT22;12071;50.850;4.446;2022-12-18T07:49:31;-4.10;99.90
23783;DHT22;12071;50.850;4.446;2022-12-18T07:51:57;-4.10;99.90
23783;DHT22;12071;50.850;4.446;2022-12-18T07:54:24;-4.10;99.90
23783;DHT22;12071;50.850;4.446;2022-12-18T07:56:50;-4.10;99.90
23783;DHT22;12071;50.850;4.446;2022-12-18T07:59:16;-4.10;99.90
23783;DHT22;12071;50.850;4.446;2022-12-18T08:01:41;-4.10;99.90
23783;DHT22;12071;50.850;4.446;2022-12-18T08:04:07;-4.00;99.90
23783;DHT22;12071;50.850;4.446;2022-12-18T08:06:32;-4.00;99.90
23783;DHT22;12071;50.850;4.446;2022-12-18T08:08:58;-4.00;99.90
23783;DHT22;12071;50.850;4.446;2022-12-18T08:11:26;-3.80;99.90
23783;DHT22;12071;50.850;4.446;2022-12-18T08:13:52;-3.70;99.90
23783;DHT22;12071;50.850;4.446;2022-12-18T08:16:18;-3.70;99.90
23783;DHT22;12071;50.850;4.446;2022-12-18T08:18:43;-3.80;99.90
23783;DHT22;12071;50.850;4.446;2022-12-18T08:21:18;-3.60;99.90
23783;DHT22;12071;50.850;4.446;2022-12-18T08:23:44;-3.60;99.90
23783;DHT22;12071;50.850;4.446;2022-12-18T08:26:11;-3.30;99.90
23783;DHT22;12071;50.850;4.446;2022-12-18T08:28:36;-3.20;99.90
23783;DHT22;12071;50.850;4.446;2022-12-18T08:31:02;-3.10;99.90
23783;DHT22;12071;50.850;4.446;2022-12-18T08:33:29;-2.80;99.90
23783;DHT22;12071;50.850;4.446;2022-12-18T08:35:54;-2.90;99.90
23783;DHT22;12071;50.850;4.446;2022-12-18T08:38:20;-2.80;99.90
23783;DHT22;12071;50.850;4.446;2022-12-18T08:40:45;-2.80;99.90
23783;DHT22;12071;50.850;4.446;2022-12-18T08:43:11;-2.80;99.90
23783;DHT22;12071;50.850;4.446;2022-12-18T08:45:56;-2.80;99.90
23783;DHT22;12071;50.850;4.446;2022-12-18T08:48:22;-2.80;99.90
23783;DHT22;12071;50.850;4.446;2022-12-18T08:50:58;-2.70;99.90
23783;DHT22;12071;50.850;4.446;2022-12-18T08:53:24;-2.60;99.90
23783;DHT22;12071;50.850;4.446;2022-12-18T08:55:49;-2.50;99.90
23783;DHT22;12071;50.850;4.446;2022-12-18T08:58:15;-2.40;99.90
23783;DHT22;12071;50.850;4.446;2022-12-18T09:00:41;-2.10;99.90
23783;DHT22;12071;50.850;4.446;2022-12-18T09:03:12;-2.00;99.90
23783;DHT22;12071;50.850;4.446;2022-12-18T09:05:37;-2.00;99.90
23783;DHT22;12071;50.850;4.446;2022-12-18T09:08:03;-1.70;99.90
23783;DHT22;12071;50.850;4.446;2022-12-18T09:10:28;-1.70;99.90
23783;DHT22;12071;50.850;4.446;2022-12-18T09:12:54;-1.60;99.90
23783;DHT22;12071;50.850;4.446;2022-12-18T09:15:21;-1.60;99.90
23783;DHT22;12071;50.850;4.446;2022-12-18T09:17:47;-1.50;99.90
23783;DHT22;12071;50.850;4.446;2022-12-18T09:20:13;-1.40;99.90
23783;DHT22;12071;50.850;4.446;2022-12-18T09:22:39;-1.00;99.90
23783;DHT22;12071;50.850;4.446;2022-12-18T09:25:04;-0.90;25.90
23783;DHT22;12071;50.850;4.446;2022-12-18T09:27:33;-0.80;1.00
23783;DHT22;12071;50.850;4.446;2022-12-18T09:29:59;-0.90;1.00
23783;DHT22;12071;50.850;4.446;2022-12-18T09:32:25;-0.70;1.00
23783;DHT22;12071;50.850;4.446;2022-12-18T09:34:50;-0.50;1.00
23783;DHT22;12071;50.850;4.446;2022-12-18T09:37:16;-0.50;1.00
23783;DHT22;12071;50.850;4.446;2022-12-18T09:39:42;-0.30;1.00
23783;DHT22;12071;50.850;4.446;2022-12-18T09:42:17;-0.30;99.90
23783;DHT22;12071;50.850;4.446;2022-12-18T09:44:50;-0.40;1.00
23783;DHT22;12071;50.850;4.446;2022-12-18T09:47:23;-0.30;1.00
23783;DHT22;12071;50.850;4.446;2022-12-18T09:49:56;-0.30;1.00
23783;DHT22;12071;50.850;4.446;2022-12-18T09:52:41;0.10;99.90
23783;DHT22;12071;50.850;4.446;2022-12-18T09:55:31;0.00;1.00
23783;DHT22;12071;50.850;4.446;2022-12-18T10:00:46;0.10;99.90
23783;DHT22;12071;50.850;4.446;2022-12-18T10:03:14;0.00;99.90
23783;DHT22;12071;50.850;4.446;2022-12-18T10:05:42;-0.10;99.90
23783;DHT22;12071;50.850;4.446;2022-12-18T10:10:53;0.10;99.90
23783;DHT22;12071;50.850;4.446;2022-12-18T10:13:34;0.10;99.90
23783;DHT22;12071;50.850;4.446;2022-12-18T10:18:59;0.40;99.90
23783;DHT22;12071;50.850;4.446;2022-12-18T10:24:38;0.40;99.90
23783;DHT22;12071;50.850;4.446;2022-12-18T10:27:15;0.60;99.90
23783;DHT22;12071;50.850;4.446;2022-12-18T10:29:42;0.70;99.90
23783;DHT22;12071;50.850;4.446;2022-12-18T10:32:15;0.80;99.90
23783;DHT22;12071;50.850;4.446;2022-12-18T10:34:44;0.60;67.30
23783;DHT22;12071;50.850;4.446;2022-12-18T10:37:16;0.50;74.50
23783;DHT22;12071;50.850;4.446;2022-12-18T10:39:42;0.80;99.90
23783;DHT22;12071;50.850;4.446;2022-12-18T10:42:17;0.90;1.00
23783;DHT22;12071;50.850;4.446;2022-12-18T10:44:43;0.80;1.00
23783;DHT22;12071;50.850;4.446;2022-12-18T10:47:14;0.90;1.00
23783;DHT22;12071;50.850;4.446;2022-12-18T10:49:51;1.20;99.90
23783;DHT22;12071;50.850;4.446;2022-12-18T10:52:23;1.30;44.20
23783;DHT22;12071;50.850;4.446;2022-12-18T10:54:53;1.30;80.50
23783;DHT22;12071;50.850;4.446;2022-12-18T10:59:56;1.40;1.00
23783;DHT22;12071;50.850;4.446;2022-12-18T11:02:37;1.40;1.00
23783;DHT22;12071;50.850;4.446;2022-12-18T11:07:51;1.70;1.00
23783;DHT22;12071;50.850;4.446;2022-12-18T11:10:21;1.60;99.90
23783;DHT22;12071;50.850;4.446;2022-12-18T11:12:47;1.80;99.90
23783;DHT22;12071;50.850;4.446;2022-12-18T11:15:19;1.90;99.90
23783;DHT22;12071;50.850;4.446;2022-12-18T11:17:50;1.80;99.90
23783;DHT22;12071;50.850;4.446;2022-12-18T11:20:32;1.90;99.90
23783;DHT22;12071;50.850;4.446;2022-12-18T11:23:11;2.00;37.40
23783;DHT22;12071;50.850;4.446;2022-12-18T11:25:38;2.00;1.00
23783;DHT22;12071;50.850;4.446;2022-12-18T11:28:51;2.00;1.00
23783;DHT22;12071;50.850;4.446;2022-12-18T11:36:40;2.20;99.90
23783;DHT22;12071;50.850;4.446;2022-12-18T11:42:20;2.50;7.10
23783;DHT22;12071;50.850;4.446;2022-12-18T11:44:55;2.30;1.00
23783;DHT22;12071;50.850;4.446;2022-12-18T11:50:53;2.30;25.90
23783;DHT22;12071;50.850;4.446;2022-12-18T11:53:18;2.40;1.00
23783;DHT22;12071;50.850;4.446;2022-12-18T11:56:04;2.30;1.00
23783;DHT22;12071;50.850;4.446;2022-12-18T11:58:49;2.40;1.00
23783;DHT22;12071;50.850;4.446;2022-12-18T12:01:39;2.30;1.00
23783;DHT22;12071;50.850;4.446;2022-12-18T12:06:53;2.40;1.00
23783;DHT22;12071;50.850;4.446;2022-12-18T12:12:51;2.50;22.90
23783;DHT22;12071;50.850;4.446;2022-12-18T12:18:14;2.60;99.90
23783;DHT22;12071;50.850;4.446;2022-12-18T12:21:07;2.70;99.90
23783;DHT22;12071;50.850;4.446;2022-12-18T12:26:36;2.70;99.90
23783;DHT22;12071;50.850;4.446;2022-12-18T12:34:37;2.80;99.90
23783;DHT22;12071;50.850;4.446;2022-12-18T12:40:11;2.90;1.00
23783;DHT22;12071;50.850;4.446;2022-12-18T12:42:42;3.00;1.00
23783;DHT22;12071;50.850;4.446;2022-12-18T12:45:46;3.00;1.00
23783;DHT22;12071;50.850;4.446;2022-12-18T12:48:23;3.10;1.00
23783;DHT22;12071;50.850;4.446;2022-12-18T12:50:50;3.10;99.90
23783;DHT22;12071;50.850;4.446;2022-12-18T12:53:26;3.10;99.90
23783;DHT22;12071;50.850;4.446;2022-12-18T12:55:55;3.00;99.90
23783;DHT22;12071;50.850;4.446;2022-12-18T12:58:31;3.00;99.90
23783;DHT22;12071;50.850;4.446;2022-12-18T13:01:12;3.00;99.90
23783;DHT22;12071;50.850;4.446;2022-12-18T13:03:48;3.20;99.90
23783;DHT22;12071;50.850;4.446;2022-12-18T13:08:58;3.20;99.90
23783;DHT22;12071;50.850;4.446;2022-12-18T13:11:42;3.10;99.90
23783;DHT22;12071;50.850;4.446;2022-12-18T13:14:33;3.20;99.90
23783;DHT22;12071;50.850;4.446;2022-12-18T13:17:37;3.30;99.90
23783;DHT22;12071;50.850;4.446;2022-12-18T13:20:11;3.20;99.90
23783;DHT22;12071;50.850;4.446;2022-12-18T13:22:48;3.30;99.90
23783;DHT22;12071;50.850;4.446;2022-12-18T13:25:32;3.40;99.90
23783;DHT22;12071;50.850;4.446;2022-12-18T13:28:11;3.30;99.90
23783;DHT22;12071;50.850;4.446;2022-12-18T13:38:24;2.80;1.00
23783;DHT22;12071;50.850;4.446;2022-12-18T13:43:36;3.10;1.00
23783;DHT22;12071;50.850;4.446;2022-12-18T13:51:42;3.10;99.90
23783;DHT22;12071;50.850;4.446;2022-12-18T13:54:29;3.20;99.90
23783;DHT22;12071;50.850;4.446;2022-12-18T13:56:55;3.20;99.90
23783;DHT22;12071;50.850;4.446;2022-12-18T13:59:26;3.10;99.90
23783;DHT22;12071;50.850;4.446;2022-12-18T14:02:00;3.20;99.90
23783;DHT22;12071;50.850;4.446;2022-12-18T14:04:28;3.30;99.90
23783;DHT22;12071;50.850;4.446;2022-12-18T14:07:12;3.20;99.90
23783;DHT22;12071;50.850;4.446;2022-12-18T14:09:44;3.10;99.90
23783;DHT22;12071;50.850;4.446;2022-12-18T14:12:31;3.10;99.90
23783;DHT22;12071;50.850;4.446;2022-12-18T14:20:49;2.70;1.00
23783;DHT22;12071;50.850;4.446;2022-12-18T14:25:56;2.50;99.90
23783;DHT22;12071;50.850;4.446;2022-12-18T14:28:21;2.60;99.90
23783;DHT22;12071;50.850;4.446;2022-12-18T14:30:47;2.60;99.90
23783;DHT22;12071;50.850;4.446;2022-12-18T14:33:15;2.70;99.90
23783;DHT22;12071;50.850;4.446;2022-12-18T14:36:04;2.60;99.90
23783;DHT22;12071;50.850;4.446;2022-12-18T14:38:33;2.80;99.90
23783;DHT22;12071;50.850;4.446;2022-12-18T14:41:18;2.80;99.90
23783;DHT22;12071;50.850;4.446;2022-12-18T14:43:46;2.90;99.90
23783;DHT22;12071;50.850;4.446;2022-12-18T14:48:56;2.80;15.60
23783;DHT22;12071;50.850;4.446;2022-12-18T14:51:25;2.60;99.90
23783;DHT22;12071;50.850;4.446;2022-12-18T14:54:02;2.60;99.90
23783;DHT22;12071;50.850;4.446;2022-12-18T14:56:36;2.70;99.90
23783;DHT22;12071;50.850;4.446;2022-12-18T14:59:04;2.50;99.90
23783;DHT22;12071;50.850;4.446;2022-12-18T15:01:34;2.60;1.00
23783;DHT22;12071;50.850;4.446;2022-12-18T15:04:03;2.70;1.00
23783;DHT22;12071;50.850;4.446;2022-12-18T15:06:37;2.70;99.90
23783;DHT22;12071;50.850;4.446;2022-12-18T15:09:20;2.70;99.90
23783;DHT22;12071;50.850;4.446;2022-12-18T15:11:47;2.80;99.90
23783;DHT22;12071;50.850;4.446;2022-12-18T15:14:31;2.70;99.90
23783;DHT22;12071;50.850;4.446;2022-12-18T15:16:59;2.60;99.90
23783;DHT22;12071;50.850;4.446;2022-12-18T15:19:34;2.50;1.00
23783;DHT22;12071;50.850;4.446;2022-12-18T15:22:01;2.40;1.00
23783;DHT22;12071;50.850;4.446;2022-12-18T15:24:30;2.40;39.30
23783;DHT22;12071;50.850;4.446;2022-12-18T15:26:57;2.40;99.90
23783;DHT22;12071;50.850;4.446;2022-12-18T15:29:23;2.60;8.20
23783;DHT22;12071;50.850;4.446;2022-12-18T15:32:20;2.70;99.90
23783;DHT22;12071;50.850;4.446;2022-12-18T15:34:45;2.60;1.00
23783;DHT22;12071;50.850;4.446;2022-12-18T15:37:12;2.50;99.90
23783;DHT22;12071;50.850;4.446;2022-12-18T15:39:37;2.60;99.90
23783;DHT22;12071;50.850;4.446;2022-12-18T15:42:09;2.60;99.90
23783;DHT22;12071;50.850;4.446;2022-12-18T15:44:54;2.70;99.90
23783;DHT22;12071;50.850;4.446;2022-12-18T15:47:19;2.80;1.00
23783;DHT22;12071;50.850;4.446;2022-12-18T15:49:45;2.60;14.80
23783;DHT22;12071;50.850;4.446;2022-12-18T15:52:12;2.60;31.10
23783;DHT22;12071;50.850;4.446;2022-12-18T15:54:38;2.60;26.30
23783;DHT22;12071;50.850;4.446;2022-12-18T15:57:22;2.60;1.00
23783;DHT22;12071;50.850;4.446;2022-12-18T15:59:48;2.60;1.00
23783;DHT22;12071;50.850;4.446;2022-12-18T16:02:17;2.60;1.00
23783;DHT22;12071;50.850;4.446;2022-12-18T16:04:43;2.60;1.00
23783;DHT22;12071;50.850;4.446;2022-12-18T16:07:09;2.50;1.00
23783;DHT22;12071;50.850;4.446;2022-12-18T16:09:35;2.80;1.00
23783;DHT22;12071;50.850;4.446;2022-12-18T16:12:01;2.90;99.90
23783;DHT22;12071;50.850;4.446;2022-12-18T16:14:28;2.80;99.90
23783;DHT22;12071;50.850;4.446;2022-12-18T16:17:03;2.70;99.90
23783;DHT22;12071;50.850;4.446;2022-12-18T16:19:29;2.70;99.90
23783;DHT22;12071;50.850;4.446;2022-12-18T16:21:57;2.80;99.90
23783;DHT22;12071;50.850;4.446;2022-12-18T16:24:25;2.60;99.90
23783;DHT22;12071;50.850;4.446;2022-12-18T16:26:52;2.70;99.90
23783;DHT22;12071;50.850;4.446;2022-12-18T16:29:19;2.70;99.90
23783;DHT22;12071;50.850;4.446;2022-12-18T16:31:50;2.80;99.90
23783;DHT22;12071;50.850;4.446;2022-12-18T16:34:19;2.70;99.90
23783;DHT22;12071;50.850;4.446;2022-12-18T16:36:49;2.80;99.90
23783;DHT22;12071;50.850;4.446;2022-12-18T16:39:15;2.70;99.90
23783;DHT22;12071;50.850;4.446;2022-12-18T16:41:41;2.80;99.90
23783;DHT22;12071;50.850;4.446;2022-12-18T16:44:07;2.80;99.90
23783;DHT22;12071;50.850;4.446;2022-12-18T16:46:32;2.60;99.90
23783;DHT22;12071;50.850;4.446;2022-12-18T16:48:59;2.70;99.90
23783;DHT22;12071;50.850;4.446;2022-12-18T16:51:26;2.90;99.90
23783;DHT22;12071;50.850;4.446;2022-12-18T16:53:53;3.00;99.90
23783;DHT22;12071;50.850;4.446;2022-12-18T16:56:19;3.00;16.00
23783;DHT22;12071;50.850;4.446;2022-12-18T16:58:53;3.00;1.00
23783;DHT22;12071;50.850;4.446;2022-12-18T17:01:19;3.00;1.00
23783;DHT22;12071;50.850;4.446;2022-12-18T17:03:54;3.00;1.00
23783;DHT22;12071;50.850;4.446;2022-12-18T17:06:21;3.10;1.00
23783;DHT22;12071;50.850;4.446;2022-12-18T17:08:48;3.00;1.00
23783;DHT22;12071;50.850;4.446;2022-12-18T17:11:14;3.10;99.90
23783;DHT22;12071;50.850;4.446;2022-12-18T17:13:39;3.10;99.90
23783;DHT22;12071;50.850;4.446;2022-12-18T17:16:06;3.10;99.90
23783;DHT22;12071;50.850;4.446;2022-12-18T17:18:33;3.10;1.00
23783;DHT22;12071;50.850;4.446;2022-12-18T17:21:00;3.00;1.00
23783;DHT22;12071;50.850;4.446;2022-12-18T17:23:27;3.00;1.00
23783;DHT22;12071;50.850;4.446;2022-12-18T17:25:56;3.00;1.00
23783;DHT22;12071;50.850;4.446;2022-12-18T17:28:23;2.90;99.90
23783;DHT22;12071;50.850;4.446;2022-12-18T17:30:51;3.00;99.90
23783;DHT22;12071;50.850;4.446;2022-12-18T17:33:16;3.10;99.90
23783;DHT22;12071;50.850;4.446;2022-12-18T17:35:42;3.30;99.90
23783;DHT22;12071;50.850;4.446;2022-12-18T17:38:08;3.20;99.90